< < Back
Terminal Aerodrome Forecast


Current Version              Previous Versions:   1  2  3  4  5  6  7  8  9  

Terminal Aerodrome Forecast

486
FTUS42 KMLB 270857 AAA
TAFMCO
TAF AMD
KMCO 270857Z 2709/2806 18003KT P6SM SKC
     FM271400 14005KT P6SM FEW040
     FM271800 11008KT P6SM SCT045
     FM280200 13003KT P6SM SKC=

Latest METAR

976
SAUS70 KWBC 271500 RRC
MTRMCO
METAR KMCO 271453Z 15004KT 10SM FEW030 31/23 A3010 RMK AO2 SLP192 FU
PLUME SE T03110233 50004 $


USA.gov is the U.S. government's official web portal to all federal, state and local government web resources and services.